Terminal Aerodrome Forecast
Issued by NWS Rapid City, SD

Home | Current Version | Previous Version | Graphics & Text | Print | Product List | Glossary On
Versions: 1 2 3 4 5 6 7 8 9 10 11 12 13 14 15 16 17 18 19
000
FTUS43 KUNR 152320
TAFRAP
TAF
KRAP 152320Z 1600/1624 15009KT P6SM SCT250
     FM160200 13006KT P6SM BKN120
     FM161000 16011KT P6SM SCT200 WS010/24030KT=

USA.gov is the U.S. government's official web portal to all federal, state and local government web resources and services.